createdAt,value
2018-04-02T00:00:57.571Z,96352.03
2018-04-02T00:03:23.490Z,96346.83
2018-04-02T00:05:52.874Z,96348.72
2018-04-02T00:08:18.759Z,96340.31
2018-04-02T00:10:48.477Z,96335.23
2018-04-02T00:13:14.440Z,96333.75
2018-04-02T00:15:40.301Z,96331.05
2018-04-02T00:18:06.188Z,96338.52
2018-04-02T00:23:13.631Z,96331.80
2018-04-02T00:25:39.501Z,96323.36
2018-04-02T00:28:05.403Z,96321.27
2018-04-02T00:30:31.268Z,96320.92
2018-04-02T00:32:57.106Z,96313.25
2018-04-02T00:35:22.957Z,96312.95
2018-04-02T00:37:48.815Z,96316.50
2018-04-02T00:40:14.666Z,96312.91
2018-04-02T00:42:40.550Z,96318.78
2018-04-02T00:45:06.403Z,96315.77
2018-04-02T00:47:33.012Z,96320.39
2018-04-02T00:49:58.874Z,96318.75
2018-04-02T00:52:24.736Z,96320.00
2018-04-02T00:54:50.622Z,96319.10
2018-04-02T00:57:16.636Z,96311.66
2018-04-02T00:59:45.822Z,96316.28
2018-04-02T01:02:11.732Z,96313.06
2018-04-02T01:04:39.059Z,96311.92
2018-04-02T01:07:05.050Z,96310.48
2018-04-02T01:09:34.030Z,96309.03
2018-04-02T01:11:59.885Z,96308.82
2018-04-02T01:14:28.898Z,96310.39
2018-04-02T01:16:54.764Z,96308.67
2018-04-02T01:19:23.862Z,96310.48
2018-04-02T01:21:49.740Z,96307.59
2018-04-02T01:24:19.514Z,96302.91
2018-04-02T01:26:45.375Z,96294.97
2018-04-02T01:29:11.269Z,96297.95
2018-04-02T01:31:37.137Z,96293.14
2018-04-02T01:34:03.007Z,96293.08
2018-04-02T01:36:29.824Z,96290.26
2018-04-02T01:38:55.715Z,96283.06
2018-04-02T01:41:25.762Z,96291.11
2018-04-02T01:43:51.731Z,96290.69
2018-04-02T01:46:20.987Z,96290.46
2018-04-02T01:48:46.808Z,96283.80
2018-04-02T01:51:14.182Z,96283.06
2018-04-02T01:53:40.096Z,96275.06
2018-04-02T01:56:09.562Z,96271.63
2018-04-02T01:58:35.454Z,96271.39
2018-04-02T02:01:04.537Z,96261.09
2018-04-02T02:03:30.400Z,96266.61
2018-04-02T02:05:56.291Z,96263.81
2018-04-02T02:08:22.179Z,96257.56
2018-04-02T02:10:48.064Z,96259.07
2018-04-02T02:13:15.494Z,96263.85
2018-04-02T02:15:41.373Z,96259.67
2018-04-02T02:18:11.191Z,96255.82
2018-04-02T02:20:37.115Z,96247.76
2018-04-02T02:23:04.328Z,96252.10
2018-04-02T02:25:30.192Z,96244.41
2018-04-02T02:27:58.991Z,96243.66
2018-04-02T02:30:24.872Z,96237.58
2018-04-02T02:32:53.566Z,96231.07
2018-04-02T02:35:19.448Z,96238.22
2018-04-02T02:37:48.150Z,96237.68
2018-04-02T02:40:14.041Z,96234.03
2018-04-02T02:42:39.919Z,96234.65
2018-04-02T02:45:05.849Z,96227.81
2018-04-02T02:47:31.724Z,96231.28
2018-04-02T02:50:01.368Z,96228.14
2018-04-02T02:52:27.239Z,96228.58
2018-04-02T02:54:54.853Z,96229.67
2018-04-02T02:57:20.742Z,96220.63
2018-04-02T02:59:50.659Z,96219.91
2018-04-02T03:02:16.585Z,96223.77
2018-04-02T03:04:46.247Z,96216.72
2018-04-02T03:07:12.149Z,96220.34
2018-04-02T03:09:39.870Z,96216.62
2018-04-02T03:12:05.749Z,96207.95
2018-04-02T03:14:35.748Z,96216.05
2018-04-02T03:17:01.657Z,96208.90
2018-04-02T03:19:27.527Z,96214.75
2018-04-02T03:21:53.375Z,96212.72
2018-04-02T03:24:19.231Z,96211.39
2018-04-02T03:26:45.504Z,96224.30
2018-04-02T03:29:11.391Z,96218.05
2018-04-02T03:31:40.064Z,96224.16
2018-04-02T03:34:05.987Z,96225.72
2018-04-02T03:36:34.795Z,96228.92
2018-04-02T03:39:00.676Z,96219.63
2018-04-02T03:41:29.385Z,96213.02
2018-04-02T03:43:55.280Z,96216.06
2018-04-02T03:46:24.891Z,96209.62
2018-04-02T03:48:50.787Z,96207.16
2018-04-02T03:51:20.300Z,96204.82
2018-04-02T03:53:46.183Z,96205.77
2018-04-02T03:56:12.095Z,96205.34
2018-04-02T03:58:37.944Z,96206.88
2018-04-02T04:01:03.804Z,96203.23
2018-04-02T04:03:31.313Z,96205.23
2018-04-02T04:05:57.162Z,96203.82
2018-04-02T04:08:25.636Z,96202.53
2018-04-02T04:10:51.512Z,96202.73
2018-04-02T04:13:21.238Z,96206.58
2018-04-02T04:15:47.120Z,96204.77
2018-04-02T04:18:14.943Z,96205.86
2018-04-02T04:20:40.827Z,96208.48
2018-04-02T04:23:10.564Z,96204.25
2018-04-02T04:25:36.459Z,96200.91
2018-04-02T04:28:04.620Z,96196.53
2018-04-02T04:30:30.468Z,96194.48
2018-04-02T04:32:56.326Z,96190.39
2018-04-02T04:35:22.162Z,96191.20
2018-04-02T04:37:48.067Z,96191.05
2018-04-02T04:40:17.944Z,96191.58
2018-04-02T04:42:43.787Z,96198.00
2018-04-02T04:45:11.601Z,96198.97
2018-04-02T04:47:37.475Z,96193.67
2018-04-02T04:50:06.499Z,96187.82
2018-04-02T04:52:32.409Z,96194.14
2018-04-02T04:55:00.202Z,96194.77
2018-04-02T04:57:26.161Z,96194.02
2018-04-02T04:59:58.951Z,96187.67
2018-04-02T05:02:24.836Z,96192.34
2018-04-02T05:04:50.719Z,96184.29
2018-04-02T05:07:16.628Z,96188.91
2018-04-02T05:09:42.529Z,96182.53
2018-04-02T05:12:08.397Z,96191.30
2018-04-02T05:14:34.263Z,96193.83
2018-04-02T05:17:01.270Z,96190.77
2018-04-02T05:19:27.136Z,96192.72
2018-04-02T05:21:55.909Z,96176.77
2018-04-02T05:24:21.797Z,96192.29
2018-04-02T05:26:50.695Z,96188.82
2018-04-02T05:29:16.580Z,96187.77
2018-04-02T05:31:45.040Z,96177.34
2018-04-02T05:34:10.925Z,96177.52
2018-04-02T05:39:07.530Z,96174.91
2018-04-02T05:41:36.729Z,96181.14
2018-04-02T05:44:02.645Z,96179.16
2018-04-02T05:46:28.514Z,96180.06
2018-04-02T05:48:54.367Z,96174.25
2018-04-02T05:51:20.236Z,96175.27
2018-04-02T05:53:47.478Z,96168.06
2018-04-02T05:56:13.343Z,96164.31
2018-04-02T05:58:43.016Z,96160.91
2018-04-02T06:01:08.894Z,96162.48
2018-04-02T06:03:36.027Z,96164.54
2018-04-02T06:06:01.875Z,96164.27
2018-04-02T06:52:10.787Z,96144.50
2018-04-02T06:54:36.699Z,96145.79
2018-04-02T06:57:02.609Z,96137.81
2018-04-02T06:59:28.620Z,96139.16
2018-04-02T07:01:54.471Z,96138.56
2018-04-02T07:04:20.362Z,96134.49
2018-04-02T07:06:46.257Z,96133.89
2018-04-02T07:09:12.180Z,96145.17
2018-04-02T07:11:38.048Z,96140.34
2018-04-02T07:14:03.911Z,96139.86
2018-04-02T07:16:29.796Z,96140.27
2018-04-02T07:18:55.671Z,96135.59
2018-04-02T07:21:21.562Z,96125.47
2018-04-02T07:23:47.395Z,96133.55
2018-04-02T07:26:13.343Z,96135.13
2018-04-02T07:28:39.247Z,96132.55
2018-04-02T07:31:05.117Z,96135.05
2018-04-02T07:33:30.997Z,96139.06
2018-04-02T07:35:57.648Z,96118.61
2018-04-02T07:38:23.518Z,96127.78
2018-04-02T07:40:49.399Z,96121.20
2018-04-02T07:43:15.220Z,96118.70
2018-04-02T07:45:41.075Z,96122.91
2018-04-02T07:48:06.939Z,96122.56
2018-04-02T07:50:33.521Z,96125.72
2018-04-02T07:52:59.387Z,96120.22
2018-04-02T07:55:25.248Z,96116.31
2018-04-02T07:57:51.139Z,96115.03
2018-04-02T08:00:16.997Z,96101.62
2018-04-02T08:02:42.869Z,96106.84
2018-04-02T08:05:08.767Z,96105.77
2018-04-02T08:07:34.631Z,96097.57
2018-04-02T08:10:00.526Z,96089.66
2018-04-02T08:12:26.356Z,96084.69
2018-04-02T08:14:52.281Z,96092.30
2018-04-02T08:17:18.169Z,96089.05
2018-04-02T08:19:44.043Z,96082.97
2018-04-02T08:22:09.931Z,96084.52
2018-04-02T08:24:50.721Z,96081.05
2018-04-02T08:27:16.620Z,96086.88
2018-04-02T08:29:42.516Z,96091.73
2018-04-02T08:32:08.366Z,96082.56
2018-04-02T08:34:34.288Z,96078.47
2018-04-02T08:37:00.158Z,96075.15
2018-04-02T08:39:26.106Z,96078.03
2018-04-02T08:41:51.972Z,96083.75
2018-04-02T08:44:17.894Z,96087.36
2018-04-02T08:46:43.754Z,96083.16
2018-04-02T08:49:09.662Z,96077.19
2018-04-02T08:51:35.519Z,96066.13
2018-04-02T08:54:01.381Z,96054.69
2018-04-02T08:56:27.259Z,96070.83
2018-04-02T08:58:53.150Z,96071.61
2018-04-02T09:01:19.065Z,96067.33
2018-04-02T09:03:44.993Z,96050.95
2018-04-02T09:06:11.921Z,96065.97
2018-04-02T09:08:37.812Z,96058.98
2018-04-02T09:11:03.698Z,96052.65
2018-04-02T09:13:29.542Z,96059.16
2018-04-02T09:15:55.453Z,96067.16
2018-04-02T09:18:26.680Z,96056.17
2018-04-02T09:20:52.585Z,96057.16
2018-04-02T09:23:18.440Z,96064.92
2018-04-02T09:25:44.337Z,96053.54
2018-04-02T09:28:14.070Z,96060.68
2018-04-02T09:30:39.908Z,96052.36
2018-04-02T09:33:07.460Z,96058.61
2018-04-02T09:35:33.310Z,96053.87
2018-04-02T09:38:02.964Z,96053.75
2018-04-02T09:40:28.774Z,96045.59
2018-04-02T09:42:58.415Z,96041.40
2018-04-02T09:45:24.263Z,96044.02
2018-04-02T09:47:50.175Z,96035.08
2018-04-02T09:50:16.141Z,96031.92
2018-04-02T09:52:43.156Z,96021.23
2018-04-02T09:55:08.998Z,96017.42
2018-04-02T09:57:34.920Z,96020.28
2018-04-02T10:00:04.823Z,96021.61
2018-04-02T10:02:35.563Z,96005.67
2018-04-02T10:05:01.500Z,96001.16
2018-04-02T10:07:27.373Z,95983.87
2018-04-02T10:09:53.203Z,95996.80
2018-04-02T10:12:19.066Z,95994.83
2018-04-02T10:14:48.741Z,95999.37
2018-04-02T10:17:14.650Z,95989.62
2018-04-02T10:19:43.664Z,95982.30
2018-04-02T10:22:09.515Z,95980.16
2018-04-02T10:24:35.437Z,95978.67
2018-04-02T10:27:01.262Z,95980.74
2018-04-02T10:29:27.094Z,95973.23
2018-04-02T10:31:54.256Z,95968.61
2018-04-02T10:34:20.130Z,95956.03
2018-04-02T10:36:49.496Z,95950.39
2018-04-02T10:39:15.377Z,95946.67
2018-04-02T10:41:44.547Z,95947.49
2018-04-02T10:44:10.909Z,95940.88
2018-04-02T10:46:38.703Z,95940.38
2018-04-02T10:49:04.566Z,95939.67
2018-04-02T10:51:34.066Z,95942.91
2018-04-02T10:54:00.052Z,95932.70
2018-04-02T10:56:27.255Z,95930.81
2018-04-02T10:58:53.092Z,95916.55
2018-04-02T11:01:18.958Z,95906.16
2018-04-02T11:03:44.786Z,95910.02
2018-04-02T11:06:10.700Z,95900.94
2018-04-02T11:08:39.252Z,95889.16
2018-04-02T11:11:05.215Z,95893.63
2018-04-02T11:13:35.080Z,95891.91
2018-04-02T11:16:01.008Z,95888.22
2018-04-02T11:18:30.083Z,95886.71
2018-04-02T11:20:55.967Z,95885.27
2018-04-02T11:23:23.194Z,95884.84
2018-04-02T11:25:49.077Z,95883.52
2018-04-02T11:28:17.786Z,95884.77
2018-04-02T11:30:43.682Z,95886.15
2018-04-02T11:33:12.364Z,95876.77
2018-04-02T11:35:38.266Z,95875.77
2018-04-02T11:38:04.148Z,95875.50
2018-04-02T11:40:30.043Z,95870.64
2018-04-02T11:42:55.977Z,95859.44
2018-04-02T11:45:25.121Z,95864.94
2018-04-02T11:47:51.021Z,95846.33
2018-04-02T11:50:19.265Z,95850.61
2018-04-02T11:52:45.138Z,95846.13
2018-04-02T11:55:14.854Z,95847.55
2018-04-02T11:57:40.748Z,95853.78
2018-04-02T12:00:08.807Z,95848.94
2018-04-02T12:02:34.691Z,95837.03
2018-04-02T12:05:03.809Z,95835.83
2018-04-02T12:07:29.678Z,95830.84
2018-04-02T12:09:59.050Z,95833.47
2018-04-02T12:12:24.928Z,95838.03
2018-04-02T12:14:50.828Z,95824.92
2018-04-02T12:17:16.664Z,95824.30
2018-04-02T12:19:42.548Z,95817.34
2018-04-02T12:22:10.210Z,95815.61
2018-04-02T12:24:37.122Z,95811.88
2018-04-02T12:27:06.052Z,95810.70
2018-04-02T12:29:31.947Z,95808.94
2018-04-02T12:31:58.867Z,95806.64
2018-04-02T12:34:24.741Z,95806.31
2018-04-02T12:36:53.541Z,95797.42
2018-04-02T12:39:19.417Z,95804.83
2018-04-02T12:41:48.178Z,95795.93
2018-04-02T12:44:14.080Z,95793.02
2018-04-02T12:46:43.488Z,95785.89
2018-04-02T12:49:09.365Z,95771.77
2018-04-02T12:51:35.313Z,95769.16
2018-04-02T12:54:01.220Z,95780.50
2018-04-02T12:56:27.092Z,95755.83
2018-04-02T12:58:56.483Z,95757.29
2018-04-02T13:01:22.331Z,95746.69
2018-04-02T13:03:49.816Z,95741.64
2018-04-02T13:06:15.675Z,95736.64
2018-04-02T13:08:45.061Z,95740.53
2018-04-02T13:11:10.925Z,95729.33
2018-04-02T13:13:39.308Z,95725.86
2018-04-02T13:16:05.163Z,95722.89
2018-04-02T13:18:34.513Z,95717.45
2018-04-02T13:21:00.410Z,95712.84
2018-04-02T13:23:29.733Z,95714.91
2018-04-02T13:25:55.613Z,95721.87
2018-04-02T13:28:21.519Z,95721.06
2018-04-02T13:30:47.427Z,95712.22
2018-04-02T13:33:13.290Z,95716.98
2018-04-02T13:35:40.715Z,95712.11
2018-04-02T13:38:06.601Z,95715.69
2018-04-02T13:40:36.101Z,95698.75
2018-04-02T13:43:02.785Z,95710.52
2018-04-02T13:45:29.485Z,95707.48
2018-04-02T13:47:55.360Z,95706.02
2018-04-02T13:50:24.844Z,95697.25
2018-04-02T13:52:50.743Z,95698.56
2018-04-02T13:55:19.938Z,95697.20
2018-04-02T13:57:46.003Z,95695.98
2018-04-02T14:00:14.853Z,95685.32
2018-04-02T14:02:40.707Z,95684.78
2018-04-02T14:05:06.652Z,95684.92
2018-04-02T14:07:32.562Z,95681.86
2018-04-02T14:09:58.484Z,95686.98
2018-04-02T14:12:25.410Z,95677.99
2018-04-02T14:14:51.374Z,95676.31
2018-04-02T14:17:20.443Z,95663.18
2018-04-02T14:19:46.328Z,95661.31
2018-04-02T14:22:16.120Z,95656.50
2018-04-02T14:24:42.071Z,95667.36
2018-04-02T14:27:11.410Z,95647.32
2018-04-02T14:29:37.321Z,95644.72
2018-04-02T14:32:04.862Z,95641.03
2018-04-02T14:34:30.765Z,95641.73
2018-04-02T14:37:00.141Z,95637.03
2018-04-02T14:39:26.045Z,95627.98
2018-04-02T14:41:51.871Z,95629.72
2018-04-02T14:44:17.755Z,95626.69
2018-04-02T14:46:43.689Z,95614.48
2018-04-02T14:49:11.332Z,95629.22
2018-04-02T14:51:37.216Z,95622.27
2018-04-02T14:54:06.232Z,95624.27
2018-04-02T14:56:32.148Z,95618.44
2018-04-02T14:59:01.099Z,95612.11
2018-04-02T15:01:26.944Z,95609.13
2018-04-02T15:03:55.865Z,95611.08
2018-04-02T15:06:21.742Z,95606.16
2018-04-02T15:08:50.658Z,95604.11
2018-04-02T15:11:16.526Z,95599.88
2018-04-02T15:13:45.498Z,95596.96
2018-04-02T15:16:11.373Z,95595.25
2018-04-02T15:18:37.218Z,95585.83
2018-04-02T15:21:03.107Z,95581.33
2018-04-02T15:23:28.999Z,95575.36
2018-04-02T15:25:56.387Z,95569.89
2018-04-02T15:28:22.295Z,95568.01
2018-04-02T15:30:51.501Z,95576.57
2018-04-02T15:33:17.358Z,95579.19
2018-04-02T15:35:46.555Z,95574.17
2018-04-02T15:38:12.442Z,95570.34
2018-04-02T15:40:41.762Z,95574.22
2018-04-02T15:43:07.655Z,95566.56
2018-04-02T15:45:35.086Z,95568.20
2018-04-02T15:48:00.961Z,95553.82
2018-04-02T15:50:30.469Z,95550.53
2018-04-02T15:52:56.370Z,95549.23
2018-04-02T15:55:22.215Z,95550.52
2018-04-02T15:57:48.182Z,95540.07
2018-04-02T16:00:14.043Z,95536.22
2018-04-02T16:02:41.647Z,95535.28
2018-04-02T16:05:07.516Z,95533.41
2018-04-02T16:07:36.744Z,95538.55
2018-04-02T16:10:02.666Z,95538.19
2018-04-02T16:12:31.907Z,95536.27
2018-04-02T16:14:57.787Z,95534.97
2018-04-02T16:17:26.431Z,95536.91
2018-04-02T16:19:52.327Z,95537.98
2018-04-02T16:22:21.832Z,95538.56
2018-04-02T16:24:47.711Z,95526.25
2018-04-02T16:27:14.873Z,95527.00
2018-04-02T16:29:40.799Z,95521.29
2018-04-02T16:32:06.687Z,95517.30
2018-04-02T16:34:32.536Z,95526.78
2018-04-02T16:36:58.444Z,95531.38
2018-04-02T16:39:28.228Z,95537.42
2018-04-02T16:41:54.080Z,95537.75
2018-04-02T16:44:21.292Z,95538.92
2018-04-02T16:46:47.166Z,95541.86
2018-04-02T16:49:19.807Z,95533.28
2018-04-02T16:51:45.728Z,95530.68
2018-04-02T16:54:11.595Z,95526.13
2018-04-02T16:56:37.478Z,95519.27
2018-04-02T16:59:07.281Z,95506.30
2018-04-02T17:01:33.175Z,95498.33
2018-04-02T17:04:00.392Z,95504.23
2018-04-02T17:06:26.242Z,95506.11
2018-04-02T17:08:52.099Z,95506.05
2018-04-02T17:11:17.989Z,95505.01
2018-04-02T17:13:43.835Z,95502.63
2018-04-02T17:16:13.591Z,95499.48
2018-04-02T17:18:39.438Z,95496.97
2018-04-02T17:21:07.168Z,95496.86
2018-04-02T17:23:33.045Z,95490.16
2018-04-02T17:26:02.150Z,95493.44
2018-04-02T17:28:27.996Z,95495.03
2018-04-02T17:30:57.316Z,95489.41
2018-04-02T17:33:23.178Z,95490.61
2018-04-02T17:35:52.284Z,95482.67
2018-04-02T17:38:18.161Z,95476.48
2018-04-02T17:40:47.151Z,95474.66
2018-04-02T17:43:13.030Z,95470.75
2018-04-02T17:45:38.941Z,95461.88
2018-04-02T17:48:04.792Z,95459.80
2018-04-02T17:50:30.680Z,95453.39
2018-04-02T17:52:57.248Z,95444.70
2018-04-02T17:55:23.108Z,95436.92
2018-04-02T17:57:51.615Z,95416.44
2018-04-02T18:00:17.530Z,95415.52
2018-04-02T18:05:14.279Z,95396.50
2018-04-02T18:07:43.266Z,95394.72
2018-04-02T18:10:09.065Z,95395.91
2018-04-02T18:12:36.367Z,95404.80
2018-04-02T18:15:02.280Z,95413.99
2018-04-02T18:17:31.942Z,95417.16
2018-04-02T18:19:57.783Z,95423.88
2018-04-02T18:22:23.691Z,95423.10
2018-04-02T18:24:49.589Z,95430.73
2018-04-02T18:27:15.456Z,95434.27
2018-04-02T18:29:43.090Z,95442.80
2018-04-02T18:32:08.992Z,95438.00
2018-04-02T18:34:38.074Z,95441.20
2018-04-02T18:37:03.992Z,95435.66
2018-04-02T18:39:33.410Z,95439.41
2018-04-02T18:41:59.278Z,95435.43
2018-04-02T18:44:26.666Z,95439.97
2018-04-02T18:46:52.551Z,95434.61
2018-04-02T18:49:21.248Z,95434.92
2018-04-02T18:51:47.126Z,95447.97
2018-04-02T18:54:15.688Z,95459.23
2018-04-02T18:56:41.572Z,95469.08
2018-04-02T18:59:07.435Z,95467.84
2018-04-02T19:01:33.303Z,95467.33
2018-04-02T19:03:59.194Z,95466.37
2018-04-02T19:06:28.767Z,95469.91
2018-04-02T19:08:54.672Z,95462.73
2018-04-02T19:11:22.780Z,95465.97
2018-04-02T19:13:48.756Z,95465.47
2018-04-02T19:16:17.628Z,95475.16
2018-04-02T19:18:43.511Z,95468.52
2018-04-02T19:21:13.219Z,95483.13
2018-04-02T19:23:39.122Z,95485.19
2018-04-02T19:26:06.703Z,95483.81
2018-04-02T19:28:32.567Z,95481.62
2018-04-02T19:31:01.403Z,95485.00
2018-04-02T19:33:27.299Z,95476.19
2018-04-02T19:35:53.164Z,95457.13
2018-04-02T19:38:19.061Z,95440.79
2018-04-02T19:40:44.955Z,95443.58
2018-04-02T19:43:14.548Z,95444.94
2018-04-02T19:45:40.424Z,95447.16
2018-04-02T19:48:08.022Z,95445.69
2018-04-02T19:50:33.902Z,95436.61
2018-04-02T19:53:03.360Z,95443.06
2018-04-02T19:55:29.228Z,95433.67
2018-04-02T19:57:58.472Z,95431.88
2018-04-02T20:00:24.343Z,95434.06
2018-04-02T20:02:53.899Z,95438.58
2018-04-02T20:05:19.789Z,95449.88
2018-04-02T20:07:46.708Z,95451.83
2018-04-02T20:10:12.622Z,95456.95
2018-04-02T20:12:38.475Z,95457.52
2018-04-02T20:15:04.350Z,95475.83
2018-04-02T20:17:30.200Z,95473.85
2018-04-02T20:19:59.511Z,95468.33
2018-04-02T20:22:25.394Z,95477.36
2018-04-02T20:24:54.752Z,95472.39
2018-04-02T20:27:20.667Z,95478.26
2018-04-02T20:29:49.740Z,95470.95
2018-04-02T20:32:15.587Z,95477.62
2018-04-02T20:34:42.798Z,95472.61
2018-04-02T20:37:08.674Z,95481.72
2018-04-02T20:39:38.032Z,95475.14
2018-04-02T20:42:03.913Z,95475.56
2018-04-02T20:44:33.179Z,95471.56
2018-04-02T20:46:59.039Z,95472.83
2018-04-02T20:49:24.900Z,95467.77
2018-04-02T20:51:50.800Z,95483.74
2018-04-02T20:54:16.735Z,95458.66
2018-04-02T20:56:43.891Z,95466.00
2018-04-02T20:59:09.788Z,95482.52
2018-04-02T21:01:38.937Z,95466.96
2018-04-02T21:04:04.844Z,95466.97
2018-04-02T21:06:33.774Z,95465.58
2018-04-02T21:08:59.668Z,95457.06
2018-04-02T21:11:28.039Z,95471.14
2018-04-02T21:13:53.934Z,95459.94
2018-04-02T21:16:23.174Z,95463.22
2018-04-02T21:18:49.032Z,95468.53
2018-04-02T21:21:18.405Z,95464.48
2018-04-02T21:23:44.284Z,95472.20
2018-04-02T21:26:10.144Z,95479.75
2018-04-02T21:28:36.040Z,95489.52
2018-04-02T21:31:01.935Z,95497.48
2018-04-02T21:33:29.594Z,95498.20
2018-04-02T21:35:55.473Z,95491.03
2018-04-02T21:38:24.854Z,95464.77
2018-04-02T21:40:50.747Z,95467.31
2018-04-02T21:43:20.070Z,95460.36
2018-04-02T21:45:45.939Z,95457.73
2018-04-02T21:48:13.206Z,95464.27
2018-04-02T21:50:39.134Z,95458.50
2018-04-02T21:53:07.984Z,95452.26
2018-04-02T21:55:33.851Z,95452.39
2018-04-02T21:58:02.612Z,95439.03
2018-04-02T22:00:28.484Z,95435.06
2018-04-02T22:02:54.383Z,95439.73
2018-04-02T22:05:20.272Z,95443.91
2018-04-02T22:07:46.159Z,95447.62
2018-04-02T22:10:15.279Z,95460.14
2018-04-02T22:12:41.136Z,95454.88
2018-04-02T22:15:10.668Z,95442.14
2018-04-02T22:17:36.528Z,95450.84
2018-04-02T22:20:03.791Z,95435.16
2018-04-02T22:22:29.666Z,95428.56
2018-04-02T22:24:58.742Z,95438.13
2018-04-02T22:27:24.607Z,95442.16
2018-04-02T22:29:53.692Z,95446.41
2018-04-02T22:32:19.992Z,95446.80
2018-04-02T22:34:49.743Z,95455.33
2018-04-02T22:37:15.627Z,95453.68
2018-04-02T22:39:41.500Z,95454.11
2018-04-02T22:42:07.420Z,95458.79
2018-04-02T22:44:33.280Z,95464.80
2018-04-02T22:47:00.339Z,95470.73
2018-04-02T22:49:26.178Z,95463.59
2018-04-02T22:51:54.524Z,95461.25
2018-04-02T22:54:20.432Z,95458.64
2018-04-02T22:56:50.135Z,95458.94
2018-04-02T22:59:16.045Z,95455.59
2018-04-02T23:01:45.491Z,95455.80
2018-04-02T23:04:11.379Z,95458.80
2018-04-02T23:06:38.732Z,95459.42
2018-04-02T23:09:04.639Z,95462.33
2018-04-02T23:11:34.427Z,95457.92
2018-04-02T23:14:00.291Z,95456.59
2018-04-02T23:16:26.192Z,95462.66
2018-04-02T23:18:52.017Z,95473.22
2018-04-02T23:21:17.892Z,95477.73
2018-04-02T23:23:45.107Z,95478.54
2018-04-02T23:26:11.025Z,95469.19
2018-04-02T23:28:40.260Z,95480.91
2018-04-02T23:31:06.130Z,95474.61
2018-04-02T23:33:35.946Z,95477.66
2018-04-02T23:36:01.873Z,95486.17
2018-04-02T23:38:28.980Z,95486.25
2018-04-02T23:40:54.867Z,95486.92
2018-04-02T23:43:23.640Z,95494.69
2018-04-02T23:45:49.516Z,95496.55
2018-04-02T23:48:18.471Z,95500.70
2018-04-02T23:50:44.341Z,95505.84
2018-04-02T23:53:10.181Z,95507.85
2018-04-02T23:55:36.067Z,95513.86
2018-04-02T23:58:01.907Z,95517.70
